sensor_id;sensor_type;location;lat;lon;timestamp;temperature;humidity
12291;DHT22;6208;48.956;9.076;2023-04-03T00:01:58;5.60;98.00
12291;DHT22;6208;48.956;9.076;2023-04-03T00:04:42;5.00;97.60
12291;DHT22;6208;48.956;9.076;2023-04-03T00:07:26;7.30;99.00
12291;DHT22;6208;48.956;9.076;2023-04-03T00:10:10;5.10;98.00
12291;DHT22;6208;48.956;9.076;2023-04-03T00:12:55;5.00;97.70
12291;DHT22;6208;48.956;9.076;2023-04-03T00:15:40;6.60;98.60
12291;DHT22;6208;48.956;9.076;2023-04-03T00:18:24;5.10;98.10
12291;DHT22;6208;48.956;9.076;2023-04-03T00:21:11;5.10;97.80
12291;DHT22;6208;48.956;9.076;2023-04-03T00:23:56;5.10;97.70
12291;DHT22;6208;48.956;9.076;2023-04-03T00:26:40;8.40;98.80
12291;DHT22;6208;48.956;9.076;2023-04-03T00:29:24;5.60;97.60
12291;DHT22;6208;48.956;9.076;2023-04-03T00:32:08;5.00;97.10
12291;DHT22;6208;48.956;9.076;2023-04-03T00:34:53;7.00;98.50
12291;DHT22;6208;48.956;9.076;2023-04-03T00:37:37;7.30;98.20
12291;DHT22;6208;48.956;9.076;2023-04-03T00:40:24;7.50;98.40
12291;DHT22;6208;48.956;9.076;2023-04-03T00:43:15;5.60;97.40
12291;DHT22;6208;48.956;9.076;2023-04-03T00:46:00;5.40;97.20
12291;DHT22;6208;48.956;9.076;2023-04-03T00:48:45;5.40;97.20
12291;DHT22;6208;48.956;9.076;2023-04-03T00:51:30;6.50;97.50
12291;DHT22;6208;48.956;9.076;2023-04-03T00:54:14;6.50;97.80
12291;DHT22;6208;48.956;9.076;2023-04-03T00:56:58;8.10;98.20
12291;DHT22;6208;48.956;9.076;2023-04-03T00:59:49;6.10;97.30
12291;DHT22;6208;48.956;9.076;2023-04-03T01:02:34;6.60;97.90
12291;DHT22;6208;48.956;9.076;2023-04-03T01:05:20;5.50;97.10
12291;DHT22;6208;48.956;9.076;2023-04-03T01:08:05;5.50;97.20
12291;DHT22;6208;48.956;9.076;2023-04-03T01:10:50;5.30;97.20
12291;DHT22;6208;48.956;9.076;2023-04-03T01:13:34;5.30;97.40
12291;DHT22;6208;48.956;9.076;2023-04-03T01:16:19;5.20;97.60
12291;DHT22;6208;48.956;9.076;2023-04-03T01:19:07;5.10;97.90
12291;DHT22;6208;48.956;9.076;2023-04-03T01:22:10;5.70;98.20
12291;DHT22;6208;48.956;9.076;2023-04-03T01:24:58;4.90;98.10
12291;DHT22;6208;48.956;9.076;2023-04-03T01:27:42;6.80;98.70
12291;DHT22;6208;48.956;9.076;2023-04-03T01:30:31;4.80;98.10
12291;DHT22;6208;48.956;9.076;2023-04-03T01:33:15;7.70;99.50
12291;DHT22;6208;48.956;9.076;2023-04-03T01:35:59;6.70;99.00
12291;DHT22;6208;48.956;9.076;2023-04-03T01:38:44;4.70;98.20
12291;DHT22;6208;48.956;9.076;2023-04-03T01:41:28;6.40;98.90
12291;DHT22;6208;48.956;9.076;2023-04-03T01:44:13;5.00;98.10
12291;DHT22;6208;48.956;9.076;2023-04-03T01:46:57;4.50;98.20
12291;DHT22;6208;48.956;9.076;2023-04-03T01:49:41;4.50;98.10
12291;DHT22;6208;48.956;9.076;2023-04-03T01:52:26;4.50;97.90
12291;DHT22;6208;48.956;9.076;2023-04-03T01:55:11;5.70;98.20
12291;DHT22;6208;48.956;9.076;2023-04-03T01:57:55;6.20;98.10
12291;DHT22;6208;48.956;9.076;2023-04-03T02:00:39;4.80;97.50
12291;DHT22;6208;48.956;9.076;2023-04-03T02:03:23;5.00;96.90
12291;DHT22;6208;48.956;9.076;2023-04-03T02:06:08;4.80;97.00
12291;DHT22;6208;48.956;9.076;2023-04-03T02:08:52;4.70;96.20
12291;DHT22;6208;48.956;9.076;2023-04-03T02:11:36;4.70;95.80
12291;DHT22;6208;48.956;9.076;2023-04-03T02:14:20;4.60;96.00
12291;DHT22;6208;48.956;9.076;2023-04-03T02:19:52;4.60;95.40
12291;DHT22;6208;48.956;9.076;2023-04-03T02:22:36;5.50;95.90
12291;DHT22;6208;48.956;9.076;2023-04-03T02:25:20;4.50;95.70
12291;DHT22;6208;48.956;9.076;2023-04-03T02:28:05;4.60;95.40
12291;DHT22;6208;48.956;9.076;2023-04-03T02:30:50;4.50;94.70
12291;DHT22;6208;48.956;9.076;2023-04-03T02:33:35;7.30;95.80
12291;DHT22;6208;48.956;9.076;2023-04-03T02:36:20;6.00;95.40
12291;DHT22;6208;48.956;9.076;2023-04-03T02:44:34;4.50;94.00
12291;DHT22;6208;48.956;9.076;2023-04-03T02:47:19;4.70;94.00
12291;DHT22;6208;48.956;9.076;2023-04-03T02:50:04;4.50;94.40
12291;DHT22;6208;48.956;9.076;2023-04-03T02:52:48;4.50;94.30
12291;DHT22;6208;48.956;9.076;2023-04-03T02:55:33;7.60;95.60
12291;DHT22;6208;48.956;9.076;2023-04-03T02:58:17;4.80;94.20
12291;DHT22;6208;48.956;9.076;2023-04-03T03:01:02;5.90;94.10
12291;DHT22;6208;48.956;9.076;2023-04-03T03:03:46;4.50;94.20
12291;DHT22;6208;48.956;9.076;2023-04-03T03:06:30;4.50;94.20
12291;DHT22;6208;48.956;9.076;2023-04-03T03:09:14;4.50;94.60
12291;DHT22;6208;48.956;9.076;2023-04-03T03:11:59;7.20;95.60
12291;DHT22;6208;48.956;9.076;2023-04-03T03:14:44;5.60;94.80
12291;DHT22;6208;48.956;9.076;2023-04-03T03:17:28;4.60;94.80
12291;DHT22;6208;48.956;9.076;2023-04-03T03:20:12;4.70;94.60
12291;DHT22;6208;48.956;9.076;2023-04-03T03:22:59;4.80;95.60
12291;DHT22;6208;48.956;9.076;2023-04-03T03:25:43;4.80;95.20
12291;DHT22;6208;48.956;9.076;2023-04-03T03:28:28;6.00;96.50
12291;DHT22;6208;48.956;9.076;2023-04-03T03:31:12;7.70;97.40
12291;DHT22;6208;48.956;9.076;2023-04-03T03:33:57;5.50;96.70
12291;DHT22;6208;48.956;9.076;2023-04-03T03:36:41;8.10;97.80
12291;DHT22;6208;48.956;9.076;2023-04-03T03:39:26;4.70;96.40
12291;DHT22;6208;48.956;9.076;2023-04-03T03:42:10;5.40;97.60
12291;DHT22;6208;48.956;9.076;2023-04-03T03:44:55;7.10;97.80
12291;DHT22;6208;48.956;9.076;2023-04-03T03:47:40;4.60;96.50
12291;DHT22;6208;48.956;9.076;2023-04-03T03:50:24;6.20;97.70
12291;DHT22;6208;48.956;9.076;2023-04-03T03:53:09;4.60;96.80
12291;DHT22;6208;48.956;9.076;2023-04-03T03:55:53;4.70;96.40
12291;DHT22;6208;48.956;9.076;2023-04-03T03:58:37;4.70;96.30
12291;DHT22;6208;48.956;9.076;2023-04-03T04:01:23;4.60;95.90
12291;DHT22;6208;48.956;9.076;2023-04-03T04:04:07;5.00;96.00
12291;DHT22;6208;48.956;9.076;2023-04-03T04:06:51;6.00;97.00
12291;DHT22;6208;48.956;9.076;2023-04-03T04:09:35;5.20;96.70
12291;DHT22;6208;48.956;9.076;2023-04-03T04:12:20;5.10;97.00
12291;DHT22;6208;48.956;9.076;2023-04-03T04:15:05;4.50;96.80
12291;DHT22;6208;48.956;9.076;2023-04-03T04:17:49;4.40;97.00
12291;DHT22;6208;48.956;9.076;2023-04-03T04:20:33;4.40;96.90
12291;DHT22;6208;48.956;9.076;2023-04-03T04:23:18;6.30;97.70
12291;DHT22;6208;48.956;9.076;2023-04-03T04:26:02;5.00;96.10
12291;DHT22;6208;48.956;9.076;2023-04-03T04:28:46;4.50;95.70
12291;DHT22;6208;48.956;9.076;2023-04-03T04:31:31;4.60;95.70
12291;DHT22;6208;48.956;9.076;2023-04-03T04:34:15;7.50;97.20
12291;DHT22;6208;48.956;9.076;2023-04-03T04:36:59;4.60;96.10
12291;DHT22;6208;48.956;9.076;2023-04-03T04:39:43;4.70;96.30
12291;DHT22;6208;48.956;9.076;2023-04-03T04:42:27;7.60;97.50
12291;DHT22;6208;48.956;9.076;2023-04-03T04:45:12;4.50;96.10
12291;DHT22;6208;48.956;9.076;2023-04-03T04:47:56;7.20;97.50
12291;DHT22;6208;48.956;9.076;2023-04-03T04:50:40;7.10;97.30
12291;DHT22;6208;48.956;9.076;2023-04-03T04:53:24;4.70;96.40
12291;DHT22;6208;48.956;9.076;2023-04-03T04:56:09;5.70;97.20
12291;DHT22;6208;48.956;9.076;2023-04-03T04:58:53;6.90;98.00
12291;DHT22;6208;48.956;9.076;2023-04-03T05:01:37;4.60;97.00
12291;DHT22;6208;48.956;9.076;2023-04-03T05:04:21;4.70;97.50
12291;DHT22;6208;48.956;9.076;2023-04-03T05:07:05;4.40;97.20
12291;DHT22;6208;48.956;9.076;2023-04-03T05:09:50;4.40;97.10
12291;DHT22;6208;48.956;9.076;2023-04-03T05:12:34;5.20;97.40
12291;DHT22;6208;48.956;9.076;2023-04-03T05:15:18;6.20;97.90
12291;DHT22;6208;48.956;9.076;2023-04-03T05:18:03;6.50;98.00
12291;DHT22;6208;48.956;9.076;2023-04-03T05:20:49;4.30;97.00
12291;DHT22;6208;48.956;9.076;2023-04-03T05:23:34;4.30;96.70
12291;DHT22;6208;48.956;9.076;2023-04-03T05:26:19;6.60;97.70
12291;DHT22;6208;48.956;9.076;2023-04-03T05:29:03;4.40;96.20
12291;DHT22;6208;48.956;9.076;2023-04-03T05:31:49;5.20;96.70
12291;DHT22;6208;48.956;9.076;2023-04-03T05:34:34;4.60;96.50
12291;DHT22;6208;48.956;9.076;2023-04-03T05:37:18;4.60;96.60
12291;DHT22;6208;48.956;9.076;2023-04-03T05:40:03;6.20;97.00
12291;DHT22;6208;48.956;9.076;2023-04-03T05:42:47;4.50;96.60
12291;DHT22;6208;48.956;9.076;2023-04-03T05:45:32;5.20;97.30
12291;DHT22;6208;48.956;9.076;2023-04-03T05:48:16;4.40;96.20
12291;DHT22;6208;48.956;9.076;2023-04-03T05:53:45;4.30;96.20
12291;DHT22;6208;48.956;9.076;2023-04-03T05:56:30;4.40;96.30
12291;DHT22;6208;48.956;9.076;2023-04-03T05:59:15;4.40;96.50
12291;DHT22;6208;48.956;9.076;2023-04-03T06:01:59;7.40;98.00
12291;DHT22;6208;48.956;9.076;2023-04-03T06:04:45;4.40;96.60
12291;DHT22;6208;48.956;9.076;2023-04-03T06:07:30;4.30;96.70
12291;DHT22;6208;48.956;9.076;2023-04-03T06:10:14;7.10;98.60
12291;DHT22;6208;48.956;9.076;2023-04-03T06:12:59;6.70;98.10
12291;DHT22;6208;48.956;9.076;2023-04-03T06:15:44;4.20;97.10
12291;DHT22;6208;48.956;9.076;2023-04-03T06:18:28;4.30;97.50
12291;DHT22;6208;48.956;9.076;2023-04-03T06:21:14;4.30;97.90
12291;DHT22;6208;48.956;9.076;2023-04-03T06:23:58;4.50;97.30
12291;DHT22;6208;48.956;9.076;2023-04-03T06:26:43;4.50;97.20
12291;DHT22;6208;48.956;9.076;2023-04-03T06:29:27;4.40;97.20
12291;DHT22;6208;48.956;9.076;2023-04-03T06:32:11;4.20;97.40
12291;DHT22;6208;48.956;9.076;2023-04-03T06:34:55;5.50;98.10
12291;DHT22;6208;48.956;9.076;2023-04-03T06:37:41;5.00;98.10
12291;DHT22;6208;48.956;9.076;2023-04-03T06:40:25;6.80;99.60
12291;DHT22;6208;48.956;9.076;2023-04-03T06:43:10;5.30;98.80
12291;DHT22;6208;48.956;9.076;2023-04-03T06:45:54;7.30;99.30
12291;DHT22;6208;48.956;9.076;2023-04-03T06:48:38;7.20;98.90
12291;DHT22;6208;48.956;9.076;2023-04-03T06:51:25;6.20;98.90
12291;DHT22;6208;48.956;9.076;2023-04-03T06:54:10;4.20;98.60
12291;DHT22;6208;48.956;9.076;2023-04-03T06:56:54;4.30;98.70
12291;DHT22;6208;48.956;9.076;2023-04-03T06:59:39;4.30;98.50
12291;DHT22;6208;48.956;9.076;2023-04-03T07:02:24;4.30;98.40
12291;DHT22;6208;48.956;9.076;2023-04-03T07:05:08;4.40;98.60
12291;DHT22;6208;48.956;9.076;2023-04-03T07:07:53;4.30;98.10
12291;DHT22;6208;48.956;9.076;2023-04-03T07:10:38;4.20;98.50
12291;DHT22;6208;48.956;9.076;2023-04-03T07:13:22;4.70;98.60
12291;DHT22;6208;48.956;9.076;2023-04-03T07:16:06;4.40;98.70
12291;DHT22;6208;48.956;9.076;2023-04-03T07:18:50;4.40;99.20
12291;DHT22;6208;48.956;9.076;2023-04-03T07:21:34;4.50;98.60
12291;DHT22;6208;48.956;9.076;2023-04-03T07:24:19;4.60;99.00
12291;DHT22;6208;48.956;9.076;2023-04-03T07:27:04;4.50;99.00
12291;DHT22;6208;48.956;9.076;2023-04-03T07:29:48;4.50;98.60
12291;DHT22;6208;48.956;9.076;2023-04-03T07:32:32;5.70;99.50
12291;DHT22;6208;48.956;9.076;2023-04-03T07:35:16;5.00;99.50
12291;DHT22;6208;48.956;9.076;2023-04-03T07:38:01;4.70;98.70
12291;DHT22;6208;48.956;9.076;2023-04-03T07:40:47;5.00;98.80
12291;DHT22;6208;48.956;9.076;2023-04-03T07:43:32;4.70;99.00
12291;DHT22;6208;48.956;9.076;2023-04-03T07:46:18;7.00;99.70
12291;DHT22;6208;48.956;9.076;2023-04-03T07:51:47;5.10;98.80
12291;DHT22;6208;48.956;9.076;2023-04-03T07:54:32;5.10;98.60
12291;DHT22;6208;48.956;9.076;2023-04-03T07:57:17;5.30;99.10
12291;DHT22;6208;48.956;9.076;2023-04-03T08:00:02;5.30;98.20
12291;DHT22;6208;48.956;9.076;2023-04-03T08:02:47;5.30;98.30
12291;DHT22;6208;48.956;9.076;2023-04-03T08:05:40;5.10;98.00
12291;DHT22;6208;48.956;9.076;2023-04-03T08:08:25;5.20;99.00
12291;DHT22;6208;48.956;9.076;2023-04-03T08:11:11;6.90;99.00
12291;DHT22;6208;48.956;9.076;2023-04-03T08:13:55;3.00;97.50
12291;DHT22;6208;48.956;9.076;2023-04-03T08:16:40;5.40;98.20
12291;DHT22;6208;48.956;9.076;2023-04-03T08:19:24;5.40;97.60
12291;DHT22;6208;48.956;9.076;2023-04-03T08:22:08;5.40;97.60
12291;DHT22;6208;48.956;9.076;2023-04-03T08:24:52;5.30;97.30
12291;DHT22;6208;48.956;9.076;2023-04-03T08:27:37;5.40;97.40
12291;DHT22;6208;48.956;9.076;2023-04-03T08:30:22;5.60;97.80
12291;DHT22;6208;48.956;9.076;2023-04-03T08:33:06;5.70;97.00
12291;DHT22;6208;48.956;9.076;2023-04-03T08:35:51;5.90;97.20
12291;DHT22;6208;48.956;9.076;2023-04-03T08:38:38;6.00;97.50
12291;DHT22;6208;48.956;9.076;2023-04-03T08:41:31;6.10;96.10
12291;DHT22;6208;48.956;9.076;2023-04-03T08:50:27;6.30;94.70
12291;DHT22;6208;48.956;9.076;2023-04-03T08:53:23;6.20;95.10
12291;DHT22;6208;48.956;9.076;2023-04-03T08:56:11;6.20;95.00
12291;DHT22;6208;48.956;9.076;2023-04-03T08:59:06;6.20;94.20
12291;DHT22;6208;48.956;9.076;2023-04-03T09:01:56;6.10;94.20
12291;DHT22;6208;48.956;9.076;2023-04-03T09:04:42;6.10;94.60
12291;DHT22;6208;48.956;9.076;2023-04-03T09:08:05;6.30;95.30
12291;DHT22;6208;48.956;9.076;2023-04-03T09:10:42;6.30;95.00
12291;DHT22;6208;48.956;9.076;2023-04-03T09:13:43;6.50;95.90
12291;DHT22;6208;48.956;9.076;2023-04-03T09:16:53;6.70;95.00
12291;DHT22;6208;48.956;9.076;2023-04-03T09:19:45;6.80;93.30
12291;DHT22;6208;48.956;9.076;2023-04-03T09:22:33;6.60;92.90
12291;DHT22;6208;48.956;9.076;2023-04-03T09:25:56;6.60;93.80
12291;DHT22;6208;48.956;9.076;2023-04-03T09:28:36;6.60;93.00
12291;DHT22;6208;48.956;9.076;2023-04-03T09:31:29;6.80;93.60
12291;DHT22;6208;48.956;9.076;2023-04-03T09:34:22;6.90;93.20
12291;DHT22;6208;48.956;9.076;2023-04-03T09:37:07;6.80;93.20
12291;DHT22;6208;48.956;9.076;2023-04-03T09:39:53;8.00;93.20
12291;DHT22;6208;48.956;9.076;2023-04-03T09:42:41;7.10;94.20
12291;DHT22;6208;48.956;9.076;2023-04-03T09:45:30;7.50;93.60
12291;DHT22;6208;48.956;9.076;2023-04-03T09:48:18;7.60;91.80
12291;DHT22;6208;48.956;9.076;2023-04-03T09:51:03;7.30;91.20
12291;DHT22;6208;48.956;9.076;2023-04-03T09:53:48;7.10;91.40
12291;DHT22;6208;48.956;9.076;2023-04-03T09:56:32;7.00;90.60
12291;DHT22;6208;48.956;9.076;2023-04-03T09:59:19;6.90;90.70
12291;DHT22;6208;48.956;9.076;2023-04-03T10:02:22;6.70;90.90
12291;DHT22;6208;48.956;9.076;2023-04-03T10:05:34;6.70;93.00
12291;DHT22;6208;48.956;9.076;2023-04-03T10:08:33;6.80;92.10
12291;DHT22;6208;48.956;9.076;2023-04-03T10:11:18;6.70;92.40
12291;DHT22;6208;48.956;9.076;2023-04-03T10:14:03;6.50;92.20
12291;DHT22;6208;48.956;9.076;2023-04-03T10:16:59;6.60;93.80
12291;DHT22;6208;48.956;9.076;2023-04-03T10:23:24;6.80;91.20
12291;DHT22;6208;48.956;9.076;2023-04-03T10:29:42;7.00;90.50
12291;DHT22;6208;48.956;9.076;2023-04-03T10:32:48;8.20;92.40
12291;DHT22;6208;48.956;9.076;2023-04-03T10:38:53;6.60;91.30
12291;DHT22;6208;48.956;9.076;2023-04-03T10:48:07;7.00;93.00
12291;DHT22;6208;48.956;9.076;2023-04-03T10:54:24;7.00;91.10
12291;DHT22;6208;48.956;9.076;2023-04-03T10:57:11;6.90;91.00
12291;DHT22;6208;48.956;9.076;2023-04-03T11:00:16;7.40;92.60
12291;DHT22;6208;48.956;9.076;2023-04-03T11:03:13;7.50;90.50
12291;DHT22;6208;48.956;9.076;2023-04-03T11:06:01;7.40;90.20
12291;DHT22;6208;48.956;9.076;2023-04-03T11:08:58;7.10;90.80
12291;DHT22;6208;48.956;9.076;2023-04-03T11:11:45;7.00;90.00
12291;DHT22;6208;48.956;9.076;2023-04-03T11:14:34;6.90;90.50
12291;DHT22;6208;48.956;9.076;2023-04-03T11:25:49;6.90;90.20
12291;DHT22;6208;48.956;9.076;2023-04-03T11:28:33;6.70;89.50
12291;DHT22;6208;48.956;9.076;2023-04-03T11:34:53;6.90;91.00
12291;DHT22;6208;48.956;9.076;2023-04-03T11:37:47;6.70;90.90
12291;DHT22;6208;48.956;9.076;2023-04-03T11:40:34;6.60;90.30
12291;DHT22;6208;48.956;9.076;2023-04-03T11:46:08;6.80;92.00
12291;DHT22;6208;48.956;9.076;2023-04-03T11:48:52;6.80;90.70
12291;DHT22;6208;48.956;9.076;2023-04-03T11:51:41;6.80;88.60
12291;DHT22;6208;48.956;9.076;2023-04-03T11:54:44;6.70;84.20
12291;DHT22;6208;48.956;9.076;2023-04-03T12:09:32;6.70;80.60
12291;DHT22;6208;48.956;9.076;2023-04-03T12:12:38;6.80;81.70
12291;DHT22;6208;48.956;9.076;2023-04-03T12:15:41;6.90;82.20
12291;DHT22;6208;48.956;9.076;2023-04-03T12:24:41;6.80;83.10
12291;DHT22;6208;48.956;9.076;2023-04-03T12:27:38;6.90;85.50
12291;DHT22;6208;48.956;9.076;2023-04-03T12:30:30;6.90;82.20
12291;DHT22;6208;48.956;9.076;2023-04-03T12:33:27;7.00;85.20
12291;DHT22;6208;48.956;9.076;2023-04-03T12:36:32;7.10;82.40
12291;DHT22;6208;48.956;9.076;2023-04-03T12:40:00;7.20;85.50
12291;DHT22;6208;48.956;9.076;2023-04-03T12:45:59;7.30;82.80
12291;DHT22;6208;48.956;9.076;2023-04-03T12:48:52;7.40;80.40
12291;DHT22;6208;48.956;9.076;2023-04-03T12:51:40;7.80;82.40
12291;DHT22;6208;48.956;9.076;2023-04-03T12:54:35;7.30;78.70
12291;DHT22;6208;48.956;9.076;2023-04-03T12:57:27;7.40;80.60
12291;DHT22;6208;48.956;9.076;2023-04-03T13:00:31;9.60;83.70
12291;DHT22;6208;48.956;9.076;2023-04-03T13:03:25;7.30;79.60
12291;DHT22;6208;48.956;9.076;2023-04-03T13:06:22;7.30;79.30
12291;DHT22;6208;48.956;9.076;2023-04-03T13:09:17;7.30;81.30
12291;DHT22;6208;48.956;9.076;2023-04-03T13:12:16;7.50;78.00
12291;DHT22;6208;48.956;9.076;2023-04-03T13:15:11;7.40;76.40
12291;DHT22;6208;48.956;9.076;2023-04-03T13:17:57;7.30;78.70
12291;DHT22;6208;48.956;9.076;2023-04-03T13:20:41;7.40;74.20
12291;DHT22;6208;48.956;9.076;2023-04-03T13:23:25;7.70;74.70
12291;DHT22;6208;48.956;9.076;2023-04-03T13:26:09;7.90;70.50
12291;DHT22;6208;48.956;9.076;2023-04-03T13:28:58;7.90;69.00
12291;DHT22;6208;48.956;9.076;2023-04-03T13:31:43;8.10;71.40
12291;DHT22;6208;48.956;9.076;2023-04-03T13:34:37;7.70;69.10
12291;DHT22;6208;48.956;9.076;2023-04-03T13:37:30;7.50;69.90
12291;DHT22;6208;48.956;9.076;2023-04-03T13:40:14;8.70;70.00
12291;DHT22;6208;48.956;9.076;2023-04-03T13:43:21;7.40;67.80
12291;DHT22;6208;48.956;9.076;2023-04-03T13:46:27;7.40;68.60
12291;DHT22;6208;48.956;9.076;2023-04-03T13:49:31;7.40;67.80
12291;DHT22;6208;48.956;9.076;2023-04-03T13:52:31;7.40;70.40
12291;DHT22;6208;48.956;9.076;2023-04-03T13:55:56;9.40;68.60
12291;DHT22;6208;48.956;9.076;2023-04-03T14:01:46;7.50;70.80
12291;DHT22;6208;48.956;9.076;2023-04-03T14:07:30;7.40;68.00
12291;DHT22;6208;48.956;9.076;2023-04-03T14:10:15;7.30;67.30
12291;DHT22;6208;48.956;9.076;2023-04-03T14:12:59;7.40;70.20
12291;DHT22;6208;48.956;9.076;2023-04-03T14:15:44;7.50;64.20
12291;DHT22;6208;48.956;9.076;2023-04-03T14:18:29;7.50;66.50
12291;DHT22;6208;48.956;9.076;2023-04-03T14:21:16;7.50;69.40
12291;DHT22;6208;48.956;9.076;2023-04-03T14:24:00;7.60;70.90
12291;DHT22;6208;48.956;9.076;2023-04-03T14:26:46;7.70;72.40
12291;DHT22;6208;48.956;9.076;2023-04-03T14:29:30;8.30;70.50
12291;DHT22;6208;48.956;9.076;2023-04-03T14:32:17;7.90;65.00
12291;DHT22;6208;48.956;9.076;2023-04-03T14:35:01;7.80;69.20
12291;DHT22;6208;48.956;9.076;2023-04-03T14:37:47;7.60;68.60
12291;DHT22;6208;48.956;9.076;2023-04-03T14:40:32;7.60;66.50
12291;DHT22;6208;48.956;9.076;2023-04-03T14:43:16;7.40;64.40
12291;DHT22;6208;48.956;9.076;2023-04-03T14:46:01;7.40;64.30
12291;DHT22;6208;48.956;9.076;2023-04-03T14:48:46;7.40;67.90
12291;DHT22;6208;48.956;9.076;2023-04-03T14:51:30;8.40;67.20
12291;DHT22;6208;48.956;9.076;2023-04-03T14:54:19;7.40;65.70
12291;DHT22;6208;48.956;9.076;2023-04-03T14:57:12;7.70;67.30
12291;DHT22;6208;48.956;9.076;2023-04-03T14:59:58;8.10;68.20
12291;DHT22;6208;48.956;9.076;2023-04-03T15:02:42;8.00;64.70
12291;DHT22;6208;48.956;9.076;2023-04-03T15:05:27;8.00;62.80
12291;DHT22;6208;48.956;9.076;2023-04-03T15:08:23;7.50;62.10
12291;DHT22;6208;48.956;9.076;2023-04-03T15:11:09;7.40;62.80
12291;DHT22;6208;48.956;9.076;2023-04-03T15:13:54;7.20;65.20
12291;DHT22;6208;48.956;9.076;2023-04-03T15:16:38;7.40;65.50
12291;DHT22;6208;48.956;9.076;2023-04-03T15:19:23;7.90;64.80
12291;DHT22;6208;48.956;9.076;2023-04-03T15:22:16;8.40;60.20
12291;DHT22;6208;48.956;9.076;2023-04-03T15:25:01;8.80;56.00
12291;DHT22;6208;48.956;9.076;2023-04-03T15:27:46;9.30;58.70
12291;DHT22;6208;48.956;9.076;2023-04-03T15:30:31;9.50;56.30
12291;DHT22;6208;48.956;9.076;2023-04-03T15:33:15;9.30;54.80
12291;DHT22;6208;48.956;9.076;2023-04-03T15:36:00;9.10;57.00
12291;DHT22;6208;48.956;9.076;2023-04-03T15:38:44;9.80;57.60
12291;DHT22;6208;48.956;9.076;2023-04-03T15:41:29;9.30;57.00
12291;DHT22;6208;48.956;9.076;2023-04-03T15:44:13;9.30;55.30
12291;DHT22;6208;48.956;9.076;2023-04-03T15:46:58;9.00;57.50
12291;DHT22;6208;48.956;9.076;2023-04-03T15:49:42;9.90;57.10
12291;DHT22;6208;48.956;9.076;2023-04-03T15:52:26;8.40;56.70
12291;DHT22;6208;48.956;9.076;2023-04-03T15:55:10;8.50;58.50
12291;DHT22;6208;48.956;9.076;2023-04-03T15:57:54;9.00;58.30
12291;DHT22;6208;48.956;9.076;2023-04-03T16:00:39;9.10;55.90
12291;DHT22;6208;48.956;9.076;2023-04-03T16:03:23;9.10;57.50
12291;DHT22;6208;48.956;9.076;2023-04-03T16:06:08;9.30;55.70
12291;DHT22;6208;48.956;9.076;2023-04-03T16:08:52;9.00;56.10
12291;DHT22;6208;48.956;9.076;2023-04-03T16:11:41;8.90;57.30
12291;DHT22;6208;48.956;9.076;2023-04-03T16:14:25;8.60;58.60
12291;DHT22;6208;48.956;9.076;2023-04-03T16:17:09;8.30;55.80
12291;DHT22;6208;48.956;9.076;2023-04-03T16:19:56;8.00;59.10
12291;DHT22;6208;48.956;9.076;2023-04-03T16:22:41;8.20;63.30
12291;DHT22;6208;48.956;9.076;2023-04-03T16:25:26;8.20;62.50
12291;DHT22;6208;48.956;9.076;2023-04-03T16:28:10;8.00;59.20
12291;DHT22;6208;48.956;9.076;2023-04-03T16:30:55;8.00;60.00
12291;DHT22;6208;48.956;9.076;2023-04-03T16:36:25;8.10;56.80
12291;DHT22;6208;48.956;9.076;2023-04-03T16:39:09;8.00;59.40
12291;DHT22;6208;48.956;9.076;2023-04-03T16:41:54;8.10;60.30
12291;DHT22;6208;48.956;9.076;2023-04-03T16:44:39;7.90;57.00
12291;DHT22;6208;48.956;9.076;2023-04-03T16:47:23;8.30;57.80
12291;DHT22;6208;48.956;9.076;2023-04-03T16:50:08;7.60;58.90
12291;DHT22;6208;48.956;9.076;2023-04-03T16:52:52;7.60;59.30
12291;DHT22;6208;48.956;9.076;2023-04-03T16:55:36;9.20;61.50
12291;DHT22;6208;48.956;9.076;2023-04-03T16:58:21;7.50;58.60
12291;DHT22;6208;48.956;9.076;2023-04-03T17:01:11;7.50;59.10
12291;DHT22;6208;48.956;9.076;2023-04-03T17:03:55;7.40;60.50
12291;DHT22;6208;48.956;9.076;2023-04-03T17:06:39;7.40;61.40
12291;DHT22;6208;48.956;9.076;2023-04-03T17:09:24;7.50;62.60
12291;DHT22;6208;48.956;9.076;2023-04-03T17:12:08;7.40;62.40
12291;DHT22;6208;48.956;9.076;2023-04-03T17:14:53;4.30;60.30
12291;DHT22;6208;48.956;9.076;2023-04-03T17:17:38;7.40;63.40
12291;DHT22;6208;48.956;9.076;2023-04-03T17:20:22;7.30;63.40
12291;DHT22;6208;48.956;9.076;2023-04-03T17:23:07;7.30;63.20
12291;DHT22;6208;48.956;9.076;2023-04-03T17:25:52;7.30;63.10
12291;DHT22;6208;48.956;9.076;2023-04-03T17:28:37;7.20;61.90
12291;DHT22;6208;48.956;9.076;2023-04-03T17:31:23;7.10;62.80
12291;DHT22;6208;48.956;9.076;2023-04-03T17:34:09;7.60;64.80
12291;DHT22;6208;48.956;9.076;2023-04-03T17:36:54;7.00;65.20
12291;DHT22;6208;48.956;9.076;2023-04-03T17:39:38;6.90;61.80
12291;DHT22;6208;48.956;9.076;2023-04-03T17:42:23;6.80;63.10
12291;DHT22;6208;48.956;9.076;2023-04-03T17:45:08;6.70;61.20
12291;DHT22;6208;48.956;9.076;2023-04-03T17:47:52;6.80;62.80
12291;DHT22;6208;48.956;9.076;2023-04-03T17:50:36;6.80;63.60
12291;DHT22;6208;48.956;9.076;2023-04-03T17:53:21;6.70;64.60
12291;DHT22;6208;48.956;9.076;2023-04-03T17:56:07;6.70;65.40
12291;DHT22;6208;48.956;9.076;2023-04-03T17:58:53;6.70;64.60
12291;DHT22;6208;48.956;9.076;2023-04-03T18:01:37;6.70;61.70
12291;DHT22;6208;48.956;9.076;2023-04-03T18:04:22;6.70;62.60
12291;DHT22;6208;48.956;9.076;2023-04-03T18:07:06;8.70;65.90
12291;DHT22;6208;48.956;9.076;2023-04-03T18:09:53;6.60;64.30
12291;DHT22;6208;48.956;9.076;2023-04-03T18:12:39;6.60;63.10
12291;DHT22;6208;48.956;9.076;2023-04-03T18:15:25;6.50;63.70
12291;DHT22;6208;48.956;9.076;2023-04-03T18:18:09;6.40;64.40
12291;DHT22;6208;48.956;9.076;2023-04-03T18:20:54;5.70;63.60
12291;DHT22;6208;48.956;9.076;2023-04-03T18:23:42;6.30;65.80
12291;DHT22;6208;48.956;9.076;2023-04-03T18:26:29;6.20;65.00
12291;DHT22;6208;48.956;9.076;2023-04-03T18:29:13;6.10;65.40
12291;DHT22;6208;48.956;9.076;2023-04-03T18:32:00;4.20;64.40
12291;DHT22;6208;48.956;9.076;2023-04-03T18:34:47;6.00;66.30
12291;DHT22;6208;48.956;9.076;2023-04-03T18:37:32;5.90;66.20
12291;DHT22;6208;48.956;9.076;2023-04-03T18:40:16;5.80;66.30
12291;DHT22;6208;48.956;9.076;2023-04-03T18:43:01;5.70;66.50
12291;DHT22;6208;48.956;9.076;2023-04-03T18:45:46;5.80;66.30
12291;DHT22;6208;48.956;9.076;2023-04-03T18:48:32;5.80;66.20
12291;DHT22;6208;48.956;9.076;2023-04-03T18:51:17;5.70;66.30
12291;DHT22;6208;48.956;9.076;2023-04-03T18:54:01;5.70;66.00
12291;DHT22;6208;48.956;9.076;2023-04-03T18:56:46;5.60;65.40
12291;DHT22;6208;48.956;9.076;2023-04-03T18:59:30;5.70;66.80
12291;DHT22;6208;48.956;9.076;2023-04-03T19:02:14;5.70;65.20
12291;DHT22;6208;48.956;9.076;2023-04-03T19:05:02;5.90;65.60
12291;DHT22;6208;48.956;9.076;2023-04-03T19:07:47;5.70;65.50
12291;DHT22;6208;48.956;9.076;2023-04-03T19:10:32;6.80;67.70
12291;DHT22;6208;48.956;9.076;2023-04-03T19:13:16;5.60;65.60
12291;DHT22;6208;48.956;9.076;2023-04-03T19:16:00;5.60;66.70
12291;DHT22;6208;48.956;9.076;2023-04-03T19:18:44;5.50;65.40
12291;DHT22;6208;48.956;9.076;2023-04-03T19:21:28;5.40;68.20
12291;DHT22;6208;48.956;9.076;2023-04-03T19:24:13;5.30;67.20
12291;DHT22;6208;48.956;9.076;2023-04-03T19:26:58;5.30;66.70
12291;DHT22;6208;48.956;9.076;2023-04-03T19:29:42;6.90;68.30
12291;DHT22;6208;48.956;9.076;2023-04-03T19:32:26;5.30;68.70
12291;DHT22;6208;48.956;9.076;2023-04-03T19:35:12;5.20;67.40